createdAt,value
2023-12-11T00:01:06.729Z,98071.11
2023-12-11T00:06:16.720Z,98062.05
2023-12-11T00:11:19.965Z,98053.35
2023-12-11T00:16:23.398Z,98049.84
2023-12-11T00:21:26.569Z,98044.91
2023-12-11T00:26:29.838Z,98040.02
2023-12-11T00:31:33.220Z,98042.44
2023-12-11T00:36:36.436Z,98038.38
2023-12-11T00:41:39.701Z,98041.81
2023-12-11T00:46:42.990Z,98033.73
2023-12-11T00:51:47.865Z,98020.19
2023-12-11T00:56:51.250Z,98013.45
2023-12-11T01:01:54.560Z,98000.60
2023-12-11T01:06:57.785Z,97987.67
2023-12-11T01:12:00.933Z,97984.23
2023-12-11T01:17:36.259Z,97983.94
2023-12-11T01:22:27.458Z,97988.64
2023-12-11T01:27:31.159Z,97987.58
2023-12-11T01:32:34.895Z,97983.04
2023-12-11T01:37:38.150Z,97966.87
2023-12-11T01:42:41.427Z,97956.40
2023-12-11T01:47:45.182Z,97949.47
2023-12-11T01:52:48.525Z,97944.10
2023-12-11T01:57:52.687Z,97947.44
2023-12-11T02:02:55.902Z,97940.55
2023-12-11T02:08:00.221Z,97925.57
2023-12-11T02:13:05.233Z,97916.20
2023-12-11T02:18:10.472Z,97910.25
2023-12-11T02:23:24.833Z,97909.36
2023-12-11T02:28:28.161Z,97906.41
2023-12-11T02:33:31.469Z,97900.79
2023-12-11T02:38:34.925Z,97886.48
2023-12-11T02:43:38.126Z,97884.95
2023-12-11T02:48:41.444Z,97880.04
2023-12-11T02:53:44.854Z,97866.33
2023-12-11T02:58:48.040Z,97866.45
2023-12-11T03:03:51.416Z,97859.91
2023-12-11T03:08:54.614Z,97865.23
2023-12-11T03:13:57.844Z,97858.45
2023-12-11T03:19:01.183Z,97852.92
2023-12-11T03:24:04.595Z,97850.37
2023-12-11T03:29:07.659Z,97845.27
2023-12-11T03:34:10.890Z,97848.04
2023-12-11T03:39:14.037Z,97844.79
2023-12-11T03:44:17.147Z,97840.13
2023-12-11T03:49:21.620Z,97835.27
2023-12-11T03:54:24.934Z,97830.58
2023-12-11T03:59:28.097Z,97830.56
2023-12-11T04:04:31.680Z,97815.83
2023-12-11T04:09:34.960Z,97808.48
2023-12-11T04:14:38.320Z,97807.01
2023-12-11T04:19:41.550Z,97794.23
2023-12-11T04:24:44.585Z,97777.47
2023-12-11T04:29:47.911Z,97770.09
2023-12-11T04:34:50.984Z,97764.00
2023-12-11T04:39:54.035Z,97761.98
2023-12-11T04:44:57.136Z,97755.10
2023-12-11T04:50:00.572Z,97741.14
2023-12-11T04:55:04.217Z,97713.20
2023-12-11T05:00:08.687Z,97685.06
2023-12-11T05:05:12.175Z,97669.78
2023-12-11T05:10:15.577Z,97653.06
2023-12-11T05:15:18.771Z,97632.14
2023-12-11T05:20:22.057Z,97638.30
2023-12-11T05:25:25.357Z,97635.78
2023-12-11T05:30:28.574Z,97651.74
2023-12-11T05:35:31.770Z,97673.83
2023-12-11T05:40:35.016Z,97692.00
2023-12-11T05:45:38.744Z,97693.63
2023-12-11T05:50:43.008Z,97697.30
2023-12-11T05:55:46.215Z,97712.70
2023-12-11T06:00:49.448Z,97707.59
2023-12-11T06:05:59.416Z,97706.52
2023-12-11T06:11:02.717Z,97692.66
2023-12-11T06:16:06.475Z,97692.20
2023-12-11T06:21:19.056Z,97685.67
2023-12-11T06:26:32.984Z,97682.45
2023-12-11T06:31:36.407Z,97681.74
2023-12-11T06:36:39.712Z,97687.94
2023-12-11T06:41:43.140Z,97698.04
2023-12-11T06:46:47.261Z,97702.77
2023-12-11T06:51:51.340Z,97719.66
2023-12-11T06:56:54.680Z,97715.85
2023-12-11T07:02:05.880Z,97717.06
2023-12-11T07:07:09.638Z,97710.63
2023-12-11T07:12:12.985Z,97710.02
2023-12-11T07:17:16.240Z,97710.66
2023-12-11T07:22:19.495Z,97707.13
2023-12-11T07:27:22.768Z,97710.11
2023-12-11T07:32:26.470Z,97706.32
2023-12-11T07:37:29.973Z,97719.31
2023-12-11T07:42:33.401Z,97717.60
2023-12-11T07:47:37.066Z,97718.06
2023-12-11T07:52:40.539Z,97707.04
2023-12-11T07:57:44.257Z,97701.76
2023-12-11T08:02:47.555Z,97700.04
2023-12-11T08:07:50.670Z,97700.39
2023-12-11T08:12:54.220Z,97701.82
2023-12-11T08:17:57.806Z,97697.85
2023-12-11T08:23:01.111Z,97691.38
2023-12-11T08:28:04.365Z,97685.96
2023-12-11T08:33:07.563Z,97676.27
2023-12-11T08:38:10.836Z,97672.27
2023-12-11T08:43:14.290Z,97674.15
2023-12-11T08:48:17.693Z,97680.62
2023-12-11T08:53:21.747Z,97676.33
2023-12-11T08:58:25.679Z,97682.20
2023-12-11T09:03:28.994Z,97687.08
2023-12-11T09:08:32.401Z,97693.45
2023-12-11T09:13:36.235Z,97687.04
2023-12-11T09:18:39.528Z,97682.39
2023-12-11T09:23:42.918Z,97682.46
2023-12-11T09:28:51.519Z,97680.33
2023-12-11T09:33:55.811Z,97681.11
2023-12-11T09:38:59.942Z,97671.23
2023-12-11T09:44:04.695Z,97667.20
2023-12-11T09:49:09.022Z,97658.31
2023-12-11T09:54:12.869Z,97649.41
2023-12-11T09:59:16.458Z,97651.48
2023-12-11T10:04:19.644Z,97661.40
2023-12-11T10:09:35.911Z,97660.64
2023-12-11T10:14:39.221Z,97661.70
2023-12-11T10:19:42.947Z,97665.09
2023-12-11T10:24:46.490Z,97660.73
2023-12-11T10:29:49.737Z,97664.59
2023-12-11T10:34:53.281Z,97661.16
2023-12-11T10:39:57.105Z,97655.54
2023-12-11T10:45:00.905Z,97649.09
2023-12-11T10:50:04.725Z,97653.21
2023-12-11T10:55:08.385Z,97649.83
2023-12-11T11:00:16.109Z,97655.08
2023-12-11T11:05:22.051Z,97648.95
2023-12-11T11:10:33.458Z,97638.98
2023-12-11T11:15:36.742Z,97630.36
2023-12-11T11:20:40.685Z,97627.37
2023-12-11T11:25:52.307Z,97622.52
2023-12-11T11:30:55.743Z,97615.45
2023-12-11T11:36:00.495Z,97611.13
2023-12-11T11:41:05.608Z,97610.33
2023-12-11T11:46:08.838Z,97610.09
2023-12-11T11:51:12.123Z,97609.61
2023-12-11T11:56:15.393Z,97611.83
2023-12-11T12:01:19.162Z,97611.64
2023-12-11T12:06:22.542Z,97607.28
2023-12-11T12:11:28.382Z,97598.84
2023-12-11T12:16:32.420Z,97590.08
2023-12-11T12:21:55.841Z,97579.69
2023-12-11T12:27:03.032Z,97573.19
2023-12-11T12:32:06.674Z,97560.64
2023-12-11T12:37:09.994Z,97560.48
2023-12-11T12:42:13.209Z,97562.48
2023-12-11T12:47:16.355Z,97559.77
2023-12-11T12:52:26.875Z,97556.46
2023-12-11T12:57:36.176Z,97559.80
2023-12-11T13:02:39.492Z,97561.20
2023-12-11T13:07:44.557Z,97551.39
2023-12-11T13:12:50.240Z,97546.48
2023-12-11T13:22:06.221Z,97548.87
2023-12-11T13:27:08.714Z,97545.17
2023-12-11T13:32:15.863Z,97542.35
2023-12-11T13:37:20.397Z,97548.52
2023-12-11T13:42:22.344Z,97542.54
2023-12-11T13:47:24.237Z,97538.16
2023-12-11T13:52:26.315Z,97539.98
2023-12-11T13:57:28.511Z,97543.52
2023-12-11T14:02:59.002Z,97546.16
2023-12-11T14:07:53.400Z,97546.73
2023-12-11T14:12:55.297Z,97553.00
2023-12-11T14:17:57.870Z,97551.57
2023-12-11T14:23:00.056Z,97549.14
2023-12-11T14:28:04.984Z,97553.45
2023-12-11T14:33:07.984Z,97556.98
2023-12-11T14:38:09.804Z,97553.84
2023-12-11T14:43:11.834Z,97546.63
2023-12-11T14:48:13.963Z,97559.29
2023-12-11T14:53:16.020Z,97566.73
2023-12-11T14:58:18.765Z,97561.48
2023-12-11T15:03:20.763Z,97575.79
2023-12-11T15:08:22.783Z,97566.92
2023-12-11T15:13:29.734Z,97556.67
2023-12-11T15:18:51.001Z,97559.09
2023-12-11T15:23:53.201Z,97568.17
2023-12-11T15:28:55.099Z,97570.75
2023-12-11T15:33:57.140Z,97569.83
2023-12-11T15:38:59.412Z,97575.92
2023-12-11T15:44:01.376Z,97571.56
2023-12-11T15:49:04.152Z,97570.03
2023-12-11T15:54:09.656Z,97567.35
2023-12-11T15:59:11.534Z,97562.95
2023-12-11T16:04:13.379Z,97559.82
2023-12-11T16:09:18.588Z,97553.19
2023-12-11T16:14:20.573Z,97550.65
2023-12-11T16:19:22.590Z,97545.05
2023-12-11T16:24:24.511Z,97541.86
2023-12-11T16:29:26.406Z,97527.05
2023-12-11T16:34:28.845Z,97526.38
2023-12-11T16:39:30.894Z,97528.66
2023-12-11T16:44:32.935Z,97528.86
2023-12-11T16:49:44.525Z,97523.63
2023-12-11T16:54:50.743Z,97521.47
2023-12-11T16:59:52.629Z,97507.01
2023-12-11T17:04:54.645Z,97504.85
2023-12-11T17:09:59.163Z,97506.05
2023-12-11T17:15:01.793Z,97514.45
2023-12-11T17:20:05.081Z,97509.49
2023-12-11T17:25:07.826Z,97498.21
2023-12-11T17:30:12.402Z,97498.90
2023-12-11T17:35:15.644Z,97502.64
2023-12-11T17:40:18.454Z,97496.52
2023-12-11T17:45:22.275Z,97489.92
2023-12-11T17:50:26.811Z,97497.11
2023-12-11T17:55:29.225Z,97494.38
2023-12-11T18:00:31.258Z,97490.35
2023-12-11T18:05:33.550Z,97484.45
2023-12-11T18:10:35.633Z,97475.35
2023-12-11T18:15:37.588Z,97461.94
2023-12-11T18:20:40.011Z,97460.94
2023-12-11T18:25:41.949Z,97456.16
2023-12-11T18:30:43.978Z,97459.94
2023-12-11T18:35:46.208Z,97460.48
2023-12-11T18:40:49.390Z,97453.48
2023-12-11T18:45:51.991Z,97454.59
2023-12-11T18:50:54.906Z,97453.23
2023-12-11T18:55:59.956Z,97452.91
2023-12-11T19:01:02.668Z,97454.77
2023-12-11T19:06:05.584Z,97448.48
2023-12-11T19:11:09.286Z,97448.58
2023-12-11T19:16:11.923Z,97441.33
2023-12-11T19:21:16.466Z,97443.83
2023-12-11T19:26:19.361Z,97435.42
2023-12-11T19:31:21.991Z,97430.34
2023-12-11T19:36:24.808Z,97425.34
2023-12-11T19:41:27.174Z,97437.26
2023-12-11T19:46:30.104Z,97436.40
2023-12-11T19:51:32.277Z,97443.33
2023-12-11T19:56:34.545Z,97443.99
2023-12-11T20:07:51.528Z,97438.14
2023-12-11T20:12:55.677Z,97439.09
2023-12-11T20:18:00.051Z,97441.86
2023-12-11T20:23:03.560Z,97442.21
2023-12-11T20:28:07.289Z,97443.82
2023-12-11T20:33:12.901Z,97440.30
2023-12-11T20:38:18.951Z,97450.96
2023-12-11T20:43:22.402Z,97453.91
2023-12-11T20:48:25.901Z,97455.76
2023-12-11T20:53:29.170Z,97460.50
2023-12-11T20:58:32.541Z,97463.26
2023-12-11T21:03:38.581Z,97458.18
2023-12-11T21:08:44.147Z,97466.89
2023-12-11T21:13:49.031Z,97467.42
2023-12-11T21:18:52.319Z,97461.17
2023-12-11T21:23:56.161Z,97465.09
2023-12-11T21:29:00.675Z,97467.45
2023-12-11T21:34:04.761Z,97475.83
2023-12-11T21:39:08.159Z,97478.31
2023-12-11T21:44:11.817Z,97486.85
2023-12-11T21:49:19.218Z,97488.95
2023-12-11T21:54:23.582Z,97492.02
2023-12-11T21:59:35.355Z,97488.45
2023-12-11T22:04:43.224Z,97495.08
2023-12-11T22:09:55.948Z,97504.23
2023-12-11T22:14:59.963Z,97502.68
2023-12-11T22:20:04.660Z,97506.11
2023-12-11T22:25:09.134Z,97509.23
2023-12-11T22:30:13.336Z,97503.20
2023-12-11T22:37:18.621Z,97506.27
2023-12-11T22:42:22.184Z,97514.17
2023-12-11T22:47:25.475Z,97514.96
2023-12-11T22:52:29.033Z,97517.94
2023-12-11T22:57:32.829Z,97511.95
2023-12-11T23:02:36.412Z,97518.45
2023-12-11T23:07:39.798Z,97524.73
2023-12-11T23:12:43.392Z,97534.05
2023-12-11T23:17:46.822Z,97544.98
2023-12-11T23:22:50.272Z,97543.28
2023-12-11T23:27:53.675Z,97544.90
2023-12-11T23:32:57.123Z,97544.46
2023-12-11T23:38:00.914Z,97546.10
2023-12-11T23:43:04.405Z,97555.55
2023-12-11T23:48:07.812Z,97555.07
2023-12-11T23:53:11.210Z,97554.70
2023-12-11T23:58:14.487Z,97549.21
